Time;durP1;ratioP1;P1;durP2;ratioP2;P2;SDS_P1;SDS_P2;PMS_P1;PMS_P2;Temp;Humidity;BMP_temperature;BMP_pressure;BME280_temperature;BME280_humidity;BME280_pressure;Samples;Min_cycle;Max_cycle;Signal;HPM_P1;HPM_P2
2022/02/14 00:00:12;;;;;;;9.63;3.78;;;2.90;99.90;;;;;;5072875;28;20051;-65
2022/02/14 00:02:41;;;;;;;7.55;4.07;;;2.90;99.90;;;;;;5071454;28;20472;-66
2022/02/14 00:05:10;;;;;;;7.47;4.03;;;2.90;99.90;;;;;;5072349;28;20052;-66
2022/02/14 00:07:38;;;;;;;8.35;4.13;;;2.80;99.90;;;;;;5071072;28;20052;-66
2022/02/14 00:10:07;;;;;;;7.68;4.00;;;2.80;99.90;;;;;;5070962;28;20052;-65
2022/02/14 00:12:39;;;;;;;6.32;3.53;;;2.70;99.90;;;;;;5069940;28;20557;-65
2022/02/14 00:15:07;;;;;;;;;;;2.70;99.90;;;;;;5068574;28;20523;-66
2022/02/14 00:17:34;;;;;;;14.23;6.53;;;2.70;99.90;;;;;;5070259;28;20439;-65
2022/02/14 00:20:02;;;;;;;15.07;8.43;;;2.70;99.90;;;;;;5051775;28;20044;-65
2022/02/14 00:22:29;;;;;;;8.98;4.90;;;2.70;99.90;;;;;;5071444;28;20078;-65
2022/02/14 00:24:57;;;;;;;11.27;4.30;;;2.70;99.90;;;;;;5070620;28;20048;-65
2022/02/14 00:27:24;;;;;;;7.97;4.10;;;2.70;99.90;;;;;;5068071;28;20048;-66
2022/02/14 00:29:52;;;;;;;7.93;4.50;;;2.60;99.90;;;;;;5050161;28;20074;-65
2022/02/14 00:32:23;;;;;;;8.00;3.90;;;2.70;99.90;;;;;;5070149;28;20131;-64
2022/02/14 00:34:51;;;;;;;7.90;4.03;;;2.60;99.90;;;;;;5071395;28;20036;-65
2022/02/14 00:37:19;;;;;;;8.05;3.83;;;2.60;99.90;;;;;;5071186;28;20047;-65
2022/02/14 00:39:47;;;;;;;10.85;4.20;;;2.60;99.90;;;;;;5067351;28;20055;-65
2022/02/14 00:42:14;;;;;;;7.60;4.22;;;2.60;99.90;;;;;;5070286;28;20509;-66
2022/02/14 00:44:42;;;;;;;11.80;4.30;;;2.50;99.90;;;;;;5066735;28;20044;-66
2022/02/14 00:47:10;;;;;;;10.02;4.75;;;2.50;99.90;;;;;;5070897;28;20074;-67
2022/02/14 00:49:37;;;;;;;7.50;4.10;;;2.50;99.90;;;;;;5070895;28;20086;-66
2022/02/14 00:52:05;;;;;;;10.57;4.22;;;2.40;99.90;;;;;;5067529;28;20047;-65
2022/02/14 00:54:33;;;;;;;7.38;4.35;;;2.40;99.90;;;;;;5068778;28;20048;-65
2022/02/14 00:57:01;;;;;;;7.78;4.00;;;2.50;99.90;;;;;;5059886;28;20562;-65
2022/02/14 00:59:28;;;;;;;8.77;4.45;;;2.40;99.90;;;;;;5056275;28;20041;-65
2022/02/14 01:01:56;;;;;;;6.78;3.83;;;2.40;99.90;;;;;;5053536;28;20045;-66
2022/02/14 01:04:26;;;;;;;9.35;4.55;;;2.40;99.90;;;;;;5062887;28;20044;-66
2022/02/14 01:06:53;;;;;;;8.55;4.82;;;2.40;99.90;;;;;;5070953;28;20044;-66
2022/02/14 01:09:21;;;;;;;11.95;4.40;;;2.40;99.90;;;;;;5070371;28;20049;-67
2022/02/14 01:11:50;;;;;;;7.40;4.40;;;2.40;99.90;;;;;;5069966;28;20041;-66
2022/02/14 01:14:17;;;;;;;8.90;4.55;;;2.40;99.90;;;;;;5069431;28;20503;-65
2022/02/14 01:16:44;;;;;;;9.23;4.32;;;2.40;99.90;;;;;;5070357;28;20419;-65
2022/02/14 01:19:12;;;;;;;7.80;4.18;;;2.40;99.90;;;;;;5070971;28;20041;-66
2022/02/14 01:21:39;;;;;;;7.30;4.07;;;2.40;99.90;;;;;;5056989;28;20051;-66
2022/02/14 01:24:07;;;;;;;8.80;4.15;;;2.40;99.90;;;;;;5071104;28;20044;-66
2022/02/14 01:26:34;;;;;;;8.38;4.65;;;2.40;99.90;;;;;;5068377;28;20036;-66
2022/02/14 01:29:01;;;;;;;10.80;4.13;;;2.40;99.90;;;;;;5060811;28;20049;-66
2022/02/14 01:31:29;;;;;;;8.02;3.90;;;2.40;99.90;;;;;;5051859;28;20329;-66
2022/02/14 01:33:56;;;;;;;8.68;4.00;;;2.40;99.90;;;;;;5042141;28;20071;-66
2022/02/14 01:36:23;;;;;;;7.93;4.20;;;2.40;99.90;;;;;;5064951;28;20089;-66
2022/02/14 01:38:51;;;;;;;7.38;4.15;;;2.40;99.90;;;;;;5070436;28;20115;-66
2022/02/14 01:41:18;;;;;;;6.50;3.80;;;2.40;99.90;;;;;;5042677;28;20049;-66
2022/02/14 01:43:45;;;;;;;11.15;4.20;;;2.40;99.90;;;;;;5063583;28;20037;-66
2022/02/14 01:46:13;;;;;;;7.60;4.32;;;2.40;99.90;;;;;;5062156;28;20072;-66
2022/02/14 01:48:40;;;;;;;7.82;4.18;;;2.40;99.90;;;;;;5070245;28;20044;-66
2022/02/14 01:51:08;;;;;;;9.13;4.50;;;2.40;99.90;;;;;;5058739;28;20052;-66
2022/02/14 01:53:36;;;;;;;9.93;4.28;;;2.40;99.90;;;;;;5060891;28;20488;-66
2022/02/14 01:56:04;;;;;;;8.38;4.38;;;2.40;99.90;;;;;;5064258;28;20500;-66
2022/02/14 01:58:31;;;;;;;8.40;4.03;;;2.40;99.90;;;;;;5069136;28;20499;-66
2022/02/14 02:00:59;;;;;;;8.25;4.57;;;2.40;99.90;;;;;;5064565;28;20044;-66
2022/02/14 02:03:26;;;;;;;8.63;4.18;;;2.40;99.90;;;;;;5059801;28;20123;-66
2022/02/14 02:05:56;;;;;;;10.38;4.57;;;2.40;99.90;;;;;;5067239;28;20052;-66
2022/02/14 02:08:24;;;;;;;9.23;4.28;;;2.40;99.90;;;;;;5057770;28;20040;-66
2022/02/14 02:12:22;;;;;;;7.55;4.40;;;2.40;99.90;;;;;;5050775;28;20083;-66
2022/02/14 02:13:51;;;;;;;8.57;4.55;;;2.30;99.90;;;;;;5067101;28;20113;-66
2022/02/14 02:16:18;;;;;;;10.10;4.32;;;2.30;99.90;;;;;;5064828;28;20037;-66
2022/02/14 02:18:46;;;;;;;11.73;4.60;;;2.30;99.90;;;;;;5048749;28;20057;-66
2022/02/14 02:21:13;;;;;;;8.88;4.13;;;2.30;99.90;;;;;;5068800;28;20515;-66
2022/02/14 02:23:41;;;;;;;10.02;4.65;;;2.30;99.90;;;;;;5048528;28;20503;-66
2022/02/14 02:26:09;;;;;;;8.00;3.90;;;2.30;99.90;;;;;;5048449;28;20379;-66
2022/02/14 02:28:38;;;;;;;9.55;4.85;;;2.30;99.90;;;;;;5068812;28;20643;-66
2022/02/14 02:31:06;;;;;;;11.65;4.50;;;2.40;99.90;;;;;;5069061;28;20094;-66
2022/02/14 02:33:34;;;;;;;8.52;4.40;;;2.50;99.90;;;;;;5055807;28;20040;-66
2022/02/14 02:36:01;;;;;;;9.57;4.57;;;2.60;99.90;;;;;;5069012;28;20495;-66
2022/02/14 02:38:28;;;;;;;8.50;4.47;;;2.60;99.90;;;;;;5063202;28;20068;-66
2022/02/14 02:40:56;;;;;;;8.68;4.47;;;2.70;99.90;;;;;;5059906;28;20055;-66
2022/02/14 02:43:24;;;;;;;8.45;4.70;;;2.70;99.90;;;;;;5066810;28;20550;-66
2022/02/14 02:45:55;;;;;;;7.53;4.43;;;2.80;99.90;;;;;;5041719;28;20040;-66
2022/02/14 02:48:23;;;;;;;8.80;4.20;;;2.80;99.90;;;;;;5067830;28;20048;-66
2022/02/14 02:51:04;;;;;;;19.10;9.23;;;2.80;99.90;;;;;;5067986;28;20124;-66
2022/02/14 02:53:33;;;;;;;12.70;6.40;;;2.90;99.90;;;;;;5069310;28;20447;-66
2022/02/14 02:56:02;;;;;;;8.88;4.20;;;2.90;99.90;;;;;;5069052;28;20036;-66
2022/02/14 02:58:30;;;;;;;8.65;4.45;;;2.90;99.90;;;;;;5067161;28;20102;-66
2022/02/14 03:00:58;;;;;;;8.75;4.38;;;3.00;99.90;;;;;;5067684;28;20051;-66
2022/02/14 03:03:25;;;;;;;10.00;4.55;;;3.00;99.90;;;;;;5072559;28;20491;-66
2022/02/14 03:05:52;;;;;;;8.93;4.25;;;3.10;99.90;;;;;;5071582;28;20163;-66
2022/02/14 03:08:20;;;;;;;9.80;4.60;;;3.10;99.90;;;;;;5073625;28;20052;-66
2022/02/14 03:10:47;;;;;;;8.18;4.03;;;3.10;99.90;;;;;;5069741;28;20075;-66
2022/02/14 03:13:14;;;;;;;7.95;4.43;;;3.20;99.90;;;;;;5086598;28;20124;-65
2022/02/14 03:15:42;;;;;;;8.32;4.57;;;3.20;99.90;;;;;;5071590;28;20079;-66
2022/02/14 03:18:09;;;;;;;9.27;4.00;;;3.20;99.90;;;;;;5071860;28;20049;-66
2022/02/14 03:20:36;;;;;;;7.25;4.03;;;3.30;99.90;;;;;;5036788;28;20045;-66
2022/02/14 03:23:04;;;;;;;8.00;4.20;;;3.30;99.90;;;;;;5071539;28;20395;-66
2022/02/14 03:25:31;;;;;;;9.88;4.45;;;3.40;99.90;;;;;;5071920;28;20054;-66
2022/02/14 03:27:59;;;;;;;7.57;4.22;;;3.40;99.90;;;;;;5072353;28;20044;-66
2022/02/14 03:30:26;;;;;;;8.60;4.20;;;3.40;99.90;;;;;;5048545;28;20135;-66
2022/02/14 03:32:53;;;;;;;8.75;4.15;;;3.50;99.90;;;;;;5073133;28;20048;-66
2022/02/14 03:35:21;;;;;;;8.50;3.42;;;3.60;99.90;;;;;;5070876;28;20044;-66
2022/02/14 03:37:51;;;;;;;6.85;3.83;;;3.60;99.90;;;;;;5070793;28;20434;-66
2022/02/14 03:40:18;;;;;;;8.23;4.40;;;3.60;99.90;;;;;;5072565;28;20040;-66
2022/02/14 03:42:46;;;;;;;6.70;3.88;;;3.70;99.90;;;;;;5071406;28;20064;-66
2022/02/14 03:45:13;;;;;;;9.50;4.35;;;3.70;99.90;;;;;;5052259;28;20083;-66
2022/02/14 03:47:40;;;;;;;9.23;4.00;;;3.70;99.90;;;;;;5071943;28;20051;-66
2022/02/14 03:50:08;;;;;;;7.18;4.15;;;3.70;99.90;;;;;;5067220;28;20136;-66
2022/02/14 03:52:35;;;;;;;8.88;4.15;;;3.70;99.90;;;;;;5070973;28;20045;-66
2022/02/14 03:55:03;;;;;;;8.95;4.22;;;3.70;99.90;;;;;;5037605;28;20045;-65
2022/02/14 03:57:30;;;;;;;8.48;4.40;;;3.70;99.90;;;;;;5071274;28;20505;-65
2022/02/14 03:59:57;;;;;;;8.07;4.00;;;3.70;99.90;;;;;;5051480;28;20040;-66
2022/02/14 04:02:24;;;;;;;7.70;3.67;;;3.70;99.90;;;;;;5052503;28;20037;-65
2022/02/14 04:04:55;;;;;;;8.07;3.95;;;3.70;99.90;;;;;;5070538;28;20547;-65
2022/02/14 04:07:23;;;;;;;8.55;4.32;;;3.70;99.90;;;;;;5072569;28;20053;-65
2022/02/14 04:09:50;;;;;;;9.48;4.47;;;3.70;99.90;;;;;;5071858;28;20112;-66
2022/02/14 04:12:18;;;;;;;10.93;4.18;;;3.80;99.90;;;;;;5071306;28;20098;-65
2022/02/14 04:14:45;;;;;;;6.55;3.88;;;3.80;99.90;;;;;;5052387;28;20123;-65
2022/02/14 04:17:12;;;;;;;10.40;4.10;;;3.80;99.90;;;;;;5071345;28;20457;-65
2022/02/14 04:19:40;;;;;;;7.05;3.83;;;3.80;99.90;;;;;;5063228;28;20586;-65
2022/02/14 04:22:07;;;;;;;7.55;4.38;;;3.80;99.90;;;;;;5071188;28;20052;-65
2022/02/14 04:24:35;;;;;;;7.68;4.15;;;3.80;99.90;;;;;;5069898;28;20414;-65
2022/02/14 04:27:02;;;;;;;6.57;4.35;;;3.80;99.90;;;;;;5070136;28;20495;-66
2022/02/14 04:29:29;;;;;;;7.80;4.25;;;3.80;99.90;;;;;;5071051;28;20550;-65
2022/02/14 04:31:56;;;;;;;9.75;3.90;;;3.80;99.90;;;;;;5071538;28;20484;-65
2022/02/14 04:34:24;;;;;;;8.85;3.85;;;3.80;99.90;;;;;;5054499;28;20040;-65
2022/02/14 04:36:51;;;;;;;7.65;4.00;;;3.80;99.90;;;;;;5051695;28;20487;-65
2022/02/14 04:39:19;;;;;;;9.20;3.88;;;3.80;99.90;;;;;;5072006;28;20068;-65
2022/02/14 04:41:47;;;;;;;8.32;3.70;;;3.80;99.90;;;;;;5068539;28;20041;-65
2022/02/14 04:44:14;;;;;;;10.18;4.28;;;3.80;99.90;;;;;;5061698;28;20079;-66
2022/02/14 04:46:42;;;;;;;8.85;4.82;;;3.90;99.90;;;;;;5070831;28;20418;-65
2022/02/14 04:49:10;;;;;;;7.18;4.22;;;3.90;99.90;;;;;;5070221;28;20065;-66
2022/02/14 04:51:37;;;;;;;9.55;4.72;;;3.90;99.90;;;;;;5068875;28;20463;-65
2022/02/14 04:54:04;;;;;;;8.63;4.38;;;3.80;99.90;;;;;;5053747;28;20084;-65
2022/02/14 04:56:32;;;;;;;10.73;4.45;;;3.80;99.90;;;;;;5070678;28;20407;-65
2022/02/14 04:58:59;;;;;;;8.85;4.13;;;3.80;99.90;;;;;;5068832;28;20352;-66
2022/02/14 05:01:27;;;;;;;6.68;4.30;;;3.80;99.90;;;;;;5049029;28;20048;-65
2022/02/14 05:03:54;;;;;;;9.23;4.03;;;3.80;99.90;;;;;;5064577;28;20052;-65
2022/02/14 05:06:22;;;;;;;8.75;3.92;;;3.80;99.90;;;;;;5058092;28;20503;-65
2022/02/14 05:08:49;;;;;;;9.77;4.40;;;3.80;99.90;;;;;;5069481;28;20558;-66
2022/02/14 05:11:16;;;;;;;7.82;4.03;;;3.80;99.90;;;;;;5069374;28;20131;-65
2022/02/14 05:13:45;;;;;;;8.82;4.28;;;3.80;99.90;;;;;;5067788;28;20106;-65
2022/02/14 05:16:12;;;;;;;10.40;4.93;;;3.80;99.90;;;;;;5067532;28;20051;-65
2022/02/14 05:18:39;;;;;;;9.80;4.68;;;3.80;99.90;;;;;;5061309;28;20045;-65
2022/02/14 05:21:07;;;;;;;8.65;3.95;;;3.80;99.90;;;;;;5069440;28;20062;-65
2022/02/14 05:23:34;;;;;;;10.07;4.65;;;3.70;99.90;;;;;;5057838;28;20087;-65
2022/02/14 05:26:02;;;;;;;8.05;4.38;;;3.70;99.90;;;;;;5028735;28;20087;-65
2022/02/14 05:28:29;;;;;;;9.80;4.85;;;3.70;99.90;;;;;;5069667;28;20114;-65
2022/02/14 05:30:57;;;;;;;8.48;4.32;;;3.70;99.90;;;;;;5070004;28;20049;-66
2022/02/14 05:33:24;;;;;;;9.55;4.05;;;3.70;99.90;;;;;;5060542;28;20500;-65
2022/02/14 05:35:51;;;;;;;9.05;4.28;;;3.70;99.90;;;;;;5070300;28;20388;-66
2022/02/14 05:38:19;;;;;;;12.02;4.28;;;3.70;99.90;;;;;;5066997;28;20048;-66
2022/02/14 05:40:46;;;;;;;9.05;5.05;;;3.70;99.90;;;;;;5069746;28;20044;-66
2022/02/14 05:43:14;;;;;;;8.55;4.47;;;3.70;99.90;;;;;;5069054;28;20102;-65
2022/02/14 05:45:41;;;;;;;10.23;4.63;;;3.70;99.90;;;;;;5069927;28;20046;-65
2022/02/14 05:48:09;;;;;;;8.60;4.18;;;3.70;99.90;;;;;;5071038;28;20041;-65
2022/02/14 05:50:36;;;;;;;7.90;4.28;;;3.70;99.90;;;;;;5069877;28;20051;-65
2022/02/14 05:53:04;;;;;;;10.23;4.65;;;3.70;99.90;;;;;;5070140;28;20514;-65
2022/02/14 05:55:31;;;;;;;8.32;4.85;;;3.70;99.90;;;;;;5060700;28;20467;-66
2022/02/14 05:57:59;;;;;;;12.00;5.93;;;3.70;99.90;;;;;;5058236;28;20402;-66
2022/02/14 06:00:26;;;;;;;11.63;5.03;;;3.70;99.90;;;;;;5067010;28;20493;-66
2022/02/14 06:02:54;;;;;;;9.48;5.10;;;3.80;99.90;;;;;;5070958;28;20063;-66
2022/02/14 06:05:21;;;;;;;14.30;7.10;;;3.80;99.90;;;;;;5071381;28;20067;-66
2022/02/14 06:07:48;;;;;;;10.70;5.55;;;3.80;99.90;;;;;;5071266;28;20517;-66
2022/02/14 06:10:15;;;;;;;8.80;4.95;;;3.80;99.90;;;;;;5070551;28;20040;-66
2022/02/14 06:12:43;;;;;;;14.18;5.72;;;3.80;99.90;;;;;;5050514;28;20051;-65
2022/02/14 06:15:10;;;;;;;10.20;5.18;;;3.80;99.90;;;;;;5046849;28;20051;-65
2022/02/14 06:17:37;;;;;;;10.73;4.40;;;3.90;99.90;;;;;;5069400;28;20562;-66
2022/02/14 06:20:05;;;;;;;12.35;5.45;;;3.90;99.90;;;;;;5070709;28;20048;-65
2022/02/14 06:22:33;;;;;;;8.98;4.85;;;3.90;99.90;;;;;;5070921;28;20044;-65
2022/02/14 06:25:00;;;;;;;8.15;4.25;;;3.90;99.90;;;;;;5069570;28;20155;-66
2022/02/14 06:27:27;;;;;;;10.00;4.63;;;3.90;99.90;;;;;;5069456;28;20046;-65
2022/02/14 06:29:55;;;;;;;10.40;4.47;;;3.90;99.90;;;;;;5066540;28;20053;-65
2022/02/14 06:32:25;;;;;;;9.88;3.97;;;3.90;99.90;;;;;;5067983;28;20055;-65
2022/02/14 06:34:52;;;;;;;9.82;4.72;;;3.90;99.90;;;;;;5067000;28;20475;-66
2022/02/14 06:37:20;;;;;;;7.57;4.32;;;3.80;99.90;;;;;;5067406;28;20420;-66
2022/02/14 06:39:47;;;;;;;10.93;4.85;;;3.80;99.90;;;;;;5073594;28;20039;-65
2022/02/14 06:42:15;;;;;;;8.07;4.20;;;3.80;99.90;;;;;;5067217;28;20111;-66
2022/02/14 06:44:42;;;;;;;13.77;4.72;;;3.80;99.90;;;;;;5062822;28;20496;-66
2022/02/14 06:47:09;;;;;;;8.75;4.50;;;3.80;99.90;;;;;;5054995;28;20056;-66
2022/02/14 06:49:37;;;;;;;10.48;4.78;;;3.80;99.90;;;;;;5059842;28;20055;-66
2022/02/14 06:52:04;;;;;;;10.30;4.68;;;3.80;99.90;;;;;;5059853;28;20059;-65
2022/02/14 06:54:31;;;;;;;8.77;4.35;;;3.80;99.90;;;;;;5066803;28;20462;-65
2022/02/14 06:56:58;;;;;;;12.15;4.18;;;3.80;99.90;;;;;;5066288;28;20048;-66
2022/02/14 06:59:26;;;;;;;9.07;3.92;;;3.80;99.90;;;;;;5053108;28;20385;-65
2022/02/14 07:01:54;;;;;;;9.80;4.25;;;3.80;99.90;;;;;;5069262;28;20044;-65
2022/02/14 07:04:21;;;;;;;10.02;4.65;;;3.70;99.90;;;;;;5071475;28;20053;-67
2022/02/14 07:06:48;;;;;;;9.07;3.90;;;3.70;99.90;;;;;;5073178;28;20454;-66
2022/02/14 07:09:16;;;;;;;9.75;4.30;;;3.70;99.90;;;;;;5073595;28;20499;-66
2022/02/14 07:11:44;;;;;;;9.38;4.63;;;3.70;99.90;;;;;;5072253;28;20045;-66
2022/02/14 07:14:12;;;;;;;11.88;4.72;;;3.70;99.90;;;;;;5073184;28;20044;-67
2022/02/14 07:16:45;;;;;;;12.48;6.00;;;3.70;99.90;;;;;;5074625;28;20615;-66
2022/02/14 07:19:13;;;;;;;10.80;6.13;;;3.70;99.90;;;;;;5053527;28;20138;-67
2022/02/14 07:21:40;;;;;;;10.48;4.28;;;3.80;99.90;;;;;;5073027;28;20042;-67
2022/02/14 07:24:08;;;;;;;13.00;4.72;;;3.80;99.90;;;;;;5074041;28;20044;-67
2022/02/14 07:26:36;;;;;;;8.95;4.32;;;3.90;99.90;;;;;;5073305;28;20583;-67
2022/02/14 07:29:03;;;;;;;9.48;4.45;;;4.00;99.90;;;;;;5055653;28;20448;-66
2022/02/14 07:31:30;;;;;;;8.45;4.47;;;4.10;99.90;;;;;;5056562;28;20047;-66
2022/02/14 07:33:58;;;;;;;14.95;5.43;;;4.10;99.90;;;;;;5063239;28;20096;-67
2022/02/14 07:36:25;;;;;;;10.13;4.22;;;4.20;99.90;;;;;;5059743;28;20041;-67
2022/02/14 07:38:55;;;;;;;6.93;3.95;;;4.30;99.90;;;;;;5071654;28;20051;-67
2022/02/14 07:41:23;;;;;;;8.85;4.18;;;4.50;99.90;;;;;;5067650;28;20052;-68
2022/02/14 07:43:50;;;;;;;12.32;4.00;;;4.60;99.90;;;;;;5069837;28;20049;-67
2022/02/14 07:46:21;;;;;;;7.80;3.90;;;4.80;99.90;;;;;;5070999;28;20591;-67
2022/02/14 07:48:49;;;;;;;7.68;3.55;;;4.90;99.90;;;;;;5062780;28;20048;-67
2022/02/14 07:51:19;;;;;;;7.88;3.70;;;4.90;99.90;;;;;;5065405;28;20040;-66
2022/02/14 07:53:46;;;;;;;7.20;3.90;;;5.00;99.90;;;;;;5054702;28;20041;-67
2022/02/14 07:56:14;;;;;;;7.50;4.07;;;5.10;99.90;;;;;;5063160;28;20063;-66
2022/02/14 07:58:43;;;;;;;8.27;3.75;;;5.10;99.90;;;;;;5064089;28;20039;-65
2022/02/14 08:01:10;;;;;;;9.13;4.35;;;5.20;99.90;;;;;;5071375;28;20037;-66
2022/02/14 08:03:38;;;;;;;13.63;5.80;;;5.20;99.90;;;;;;5071867;28;20068;-66
2022/02/14 08:06:26;;;;;;;9.90;4.40;;;5.30;99.90;;;;;;5072026;28;20052;-67
2022/02/14 08:08:53;;;;;;;9.63;4.00;;;5.40;99.90;;;;;;5069068;28;20068;-67
2022/02/14 08:11:20;;;;;;;11.98;4.00;;;5.40;99.90;;;;;;5074509;28;20044;-67
2022/02/14 08:13:48;;;;;;;11.70;4.38;;;5.40;99.90;;;;;;5072830;28;20032;-67
2022/02/14 08:16:15;;;;;;;7.63;3.80;;;5.40;99.90;;;;;;5073150;28;20063;-66
2022/02/14 08:18:42;;;;;;;11.52;4.60;;;5.50;99.90;;;;;;5072316;28;20040;-65
2022/02/14 08:21:09;;;;;;;8.27;3.50;;;5.60;99.90;;;;;;5043338;28;20800;-65
2022/02/14 08:23:37;;;;;;;10.48;3.63;;;5.60;99.90;;;;;;5073525;28;20105;-67
2022/02/14 08:26:04;;;;;;;8.85;3.92;;;5.60;99.90;;;;;;5071492;28;20037;-65
2022/02/14 08:28:33;;;;;;;8.63;3.83;;;5.70;99.90;;;;;;5070875;28;20614;-66
2022/02/14 08:31:01;;;;;;;8.80;3.65;;;5.80;99.90;;;;;;5048108;28;20051;-66
2022/02/14 08:33:28;;;;;;;5.65;3.10;;;5.80;99.90;;;;;;5070434;28;20412;-67
2022/02/14 08:35:55;;;;;;;9.55;4.07;;;5.70;99.90;;;;;;5069298;28;20502;-65
2022/02/14 08:38:23;;;;;;;8.98;4.88;;;5.80;99.90;;;;;;5070963;28;20124;-66
2022/02/14 08:40:50;;;;;;;12.88;5.35;;;5.80;99.90;;;;;;5072683;28;20048;-66
2022/02/14 08:43:18;;;;;;;8.57;3.90;;;5.90;99.90;;;;;;5072687;28;20033;-66
2022/02/14 08:46:02;;;;;;;8.18;3.90;;;6.10;99.90;;;;;;5069214;28;20170;-66
2022/02/14 08:48:30;;;;;;;12.75;3.67;;;6.30;99.90;;;;;;5072234;28;20048;-66
2022/02/14 08:50:58;;;;;;;7.55;3.30;;;6.50;99.90;;;;;;5071696;28;20045;-66
2022/02/14 08:53:31;;;;;;;9.50;3.58;;;6.70;99.90;;;;;;5067796;28;20469;-68
2022/02/14 08:56:04;;;;;;;6.40;3.10;;;6.90;99.90;;;;;;5072066;28;20434;-67
2022/02/14 08:58:32;;;;;;;;;;;7.00;99.90;;;;;;5048527;28;20475;-65
2022/02/14 09:01:00;;;;;;;9.27;3.60;;;7.10;99.90;;;;;;5069665;28;19920;-66
2022/02/14 09:03:28;;;;;;;6.93;3.90;;;7.30;99.90;;;;;;5072851;28;20661;-66
2022/02/14 09:05:56;;;;;;;7.43;3.08;;;7.30;99.90;;;;;;5072414;28;20372;-67
2022/02/14 09:08:27;;;;;;;8.65;3.47;;;7.30;99.90;;;;;;5072592;28;20503;-67
2022/02/14 09:11:00;;;;;;;7.47;3.20;;;7.30;99.90;;;;;;5071052;28;20059;-67
2022/02/14 09:13:31;;;;;;;8.27;3.47;;;7.30;99.90;;;;;;5069169;28;20414;-69
2022/02/14 09:16:03;;;;;;;10.05;3.25;;;7.40;99.90;;;;;;5071693;28;20415;-66
2022/02/14 09:18:40;;;;;;;7.50;3.33;;;7.50;99.90;;;;;;5055568;28;20049;-67
2022/02/14 09:21:09;;;;;;;9.18;3.67;;;7.50;99.90;;;;;;5072004;28;20048;-68
2022/02/14 09:23:36;;;;;;;8.65;3.42;;;7.60;99.90;;;;;;5052117;28;20655;-68
2022/02/14 09:26:04;;;;;;;8.13;4.00;;;7.60;99.90;;;;;;5069346;28;20864;-66
2022/02/14 09:28:31;;;;;;;8.05;3.80;;;7.80;99.90;;;;;;5070460;28;20083;-66
2022/02/14 09:30:59;;;;;;;12.80;5.20;;;7.70;99.90;;;;;;5060924;28;20049;-67
2022/02/14 09:33:27;;;;;;;6.47;3.00;;;7.70;99.90;;;;;;5070752;28;20045;-67
2022/02/14 09:35:54;;;;;;;6.55;3.30;;;7.70;99.90;;;;;;5073414;28;20048;-66
2022/02/14 09:38:26;;;;;;;8.25;2.80;;;7.80;99.90;;;;;;5072765;28;20090;-67
2022/02/14 09:40:54;;;;;;;7.88;3.35;;;7.90;99.90;;;;;;5051832;28;20072;-67
2022/02/14 09:43:22;;;;;;;7.32;2.85;;;8.00;99.90;;;;;;5071994;28;20051;-67
2022/02/14 09:45:49;;;;;;;5.30;2.63;;;8.20;99.90;;;;;;5071383;28;20051;-67
2022/02/14 09:48:20;;;;;;;7.05;3.17;;;8.40;99.90;;;;;;5072939;28;20071;-68
2022/02/14 09:50:52;;;;;;;5.97;3.15;;;8.70;99.90;;;;;;5066826;28;20052;-68
2022/02/14 09:53:19;;;;;;;7.03;2.83;;;9.00;99.90;;;;;;5062293;28;20411;-68
2022/02/14 09:55:47;;;;;;;9.40;3.08;;;9.20;99.90;;;;;;5065622;28;20033;-66
2022/02/14 09:58:15;;;;;;;6.53;3.15;;;9.30;99.90;;;;;;5062629;28;20049;-67
2022/02/14 10:00:42;;;;;;;6.50;3.13;;;9.40;99.90;;;;;;5064273;28;20047;-66
2022/02/14 10:03:18;;;;;;;9.18;3.22;;;9.60;99.90;;;;;;5051318;28;20033;-67
2022/02/14 10:05:48;;;;;;;5.05;3.05;;;9.60;99.90;;;;;;5070672;28;20036;-68
2022/02/14 10:08:27;;;;;;;5.97;3.17;;;9.60;99.90;;;;;;5068841;28;20045;-68
2022/02/14 10:11:11;;;;;;;5.88;3.13;;;9.60;99.90;;;;;;5051734;28;20135;-67
2022/02/14 10:13:39;;;;;;;6.90;3.35;;;9.60;99.90;;;;;;5070526;28;20041;-67
2022/02/14 10:16:13;;;;;;;7.25;3.40;;;9.60;99.90;;;;;;5051972;28;20048;-68
2022/02/14 10:18:41;;;;;;;7.25;3.47;;;9.70;99.90;;;;;;5070850;28;20112;-67
2022/02/14 10:21:16;;;;;;;10.00;3.90;;;9.80;99.90;;;;;;5070653;28;20487;-67
2022/02/14 10:23:56;;;;;;;11.25;5.13;;;10.00;99.90;;;;;;5069360;28;20054;-67
2022/02/14 10:26:37;;;;;;;9.93;3.73;;;10.10;99.90;;;;;;5071763;28;20044;-67
2022/02/14 10:29:10;;;;;;;8.35;3.45;;;10.20;99.90;;;;;;5066724;28;20306;-68
2022/02/14 10:31:45;;;;;;;8.07;3.35;;;10.30;99.90;;;;;;5068864;28;20044;-68
2022/02/14 10:34:13;;;;;;;8.93;3.80;;;10.30;99.90;;;;;;5063913;28;20540;-67
2022/02/14 10:36:44;;;;;;;9.63;3.47;;;10.30;99.90;;;;;;5069280;28;20068;-67
2022/02/14 10:39:25;;;;;;;6.57;3.67;;;10.30;99.90;;;;;;5066476;28;20514;-68
2022/02/14 10:42:01;;;;;;;8.15;3.85;;;10.30;99.90;;;;;;5068364;28;20054;-67
2022/02/14 10:45:10;;;;;;;6.13;3.40;;;10.50;99.90;;;;;;5068288;28;20127;-68
2022/02/14 10:47:39;;;;;;;6.72;3.55;;;10.70;99.90;;;;;;5060104;28;20041;-67
2022/02/14 10:50:12;;;;;;;7.65;3.53;;;10.80;99.90;;;;;;5066489;28;20071;-67
2022/02/14 10:52:58;;;;;;;10.68;4.13;;;11.00;99.90;;;;;;5051146;28;20041;-67
2022/02/14 10:55:42;;;;;;;9.18;3.95;;;11.00;99.90;;;;;;5068048;28;20067;-66
2022/02/14 10:58:10;;;;;;;9.25;3.28;;;11.20;99.80;;;;;;5066197;28;20051;-67
2022/02/14 11:00:39;;;;;;;7.47;3.33;;;11.30;99.70;;;;;;5063114;28;20048;-67
2022/02/14 11:03:07;;;;;;;9.05;3.75;;;11.30;99.50;;;;;;5068793;28;20065;-67
2022/02/14 11:05:35;;;;;;;7.45;3.00;;;11.40;99.60;;;;;;5048505;28;20077;-67
2022/02/14 11:08:03;;;;;;;15.23;4.93;;;11.40;99.40;;;;;;5069088;28;20048;-67
2022/02/14 11:10:32;;;;;;;6.00;3.00;;;11.50;99.10;;;;;;5069294;28;20100;-66
2022/02/14 11:13:01;;;;;;;6.28;3.40;;;11.70;99.00;;;;;;5070282;28;20491;-67
2022/02/14 11:15:34;;;;;;;6.97;2.92;;;11.80;98.40;;;;;;5069541;28;20070;-67
2022/02/14 11:18:04;;;;;;;9.77;3.47;;;11.90;98.30;;;;;;5051581;28;20051;-67
2022/02/14 11:20:37;;;;;;;7.00;3.50;;;12.10;97.80;;;;;;5069204;28;20052;-67
2022/02/14 11:23:09;;;;;;;6.22;2.97;;;12.00;97.50;;;;;;5071496;28;20032;-66
2022/02/14 11:25:51;;;;;;;14.52;3.80;;;12.10;97.10;;;;;;5071210;28;20155;-67
2022/02/14 11:28:37;;;;;;;;;;;12.10;96.80;;;;;;5054955;28;20589;-68
2022/02/14 11:31:12;;;;;;;7.82;3.20;;;12.20;96.20;;;;;;5063543;28;20298;-66
2022/02/14 11:33:41;;;;;;;11.25;3.40;;;12.20;95.80;;;;;;5047825;28;20491;-68
2022/02/14 11:36:12;;;;;;;9.18;3.05;;;12.20;95.70;;;;;;5072827;28;20545;-68
2022/02/14 11:38:46;;;;;;;7.95;3.10;;;12.20;95.80;;;;;;5066092;28;20040;-68
2022/02/14 11:41:35;;;;;;;12.02;3.38;;;12.10;95.80;;;;;;5064861;28;20503;-68
2022/02/14 11:44:21;;;;;;;7.20;3.30;;;12.30;96.50;;;;;;5064325;28;20072;-67
2022/02/14 11:46:55;;;;;;;6.50;3.38;;;12.90;96.30;;;;;;5071793;28;20075;-67
2022/02/14 11:49:43;;;;;;;8.18;3.10;;;13.60;95.30;;;;;;5071000;28;20040;-66
2022/02/14 11:52:25;;;;;;;10.30;3.63;;;14.30;94.40;;;;;;5070069;28;20435;-67
2022/02/14 11:54:54;;;;;;;8.63;4.00;;;14.80;92.80;;;;;;5068792;28;20606;-67
2022/02/14 11:57:22;;;;;;;6.55;3.10;;;15.30;92.30;;;;;;5070266;28;20523;-66
2022/02/14 11:59:50;;;;;;;7.97;3.60;;;15.50;90.60;;;;;;5071594;28;20048;-67
2022/02/14 12:02:28;;;;;;;6.68;3.05;;;15.80;90.30;;;;;;5071479;28;20467;-66
2022/02/14 12:04:56;;;;;;;7.95;3.55;;;16.10;89.60;;;;;;5065665;28;20071;-67
2022/02/14 12:07:39;;;;;;;10.85;3.80;;;16.20;89.00;;;;;;5067561;28;20059;-67
2022/02/14 12:10:21;;;;;;;11.10;3.63;;;16.20;88.00;;;;;;5064068;28;20083;-67
2022/02/14 12:12:51;;;;;;;;;;;16.00;86.70;;;;;;5072626;28;20131;-67
2022/02/14 12:20:34;;;;;;;10.18;3.45;;;15.80;87.40;;;;;;5070891;28;19929;-67
2022/02/14 12:21:32;;;;;;;8.65;3.80;;;16.20;86.60;;;;;;5055658;28;20503;-66
2022/02/14 12:24:14;;;;;;;6.80;3.17;;;16.60;85.50;;;;;;5069928;28;20048;-66
2022/02/14 12:26:46;;;;;;;6.43;2.97;;;16.90;85.60;;;;;;5066826;28;20365;-66
2022/02/14 12:29:32;;;;;;;7.57;2.95;;;17.40;84.10;;;;;;5071164;28;20049;-67
2022/02/14 12:32:09;;;;;;;7.18;3.08;;;17.30;83.50;;;;;;5067880;28;20563;-67
2022/02/14 12:34:37;;;;;;;7.82;3.30;;;17.60;82.30;;;;;;5064949;28;20131;-67
2022/02/14 12:37:16;;;;;;;6.40;3.03;;;17.50;81.40;;;;;;5072045;28;20040;-67
2022/02/14 12:39:50;;;;;;;11.10;2.95;;;17.10;81.30;;;;;;5067011;28;20496;-67
2022/02/14 12:42:25;;;;;;;7.82;3.30;;;16.60;81.60;;;;;;5072146;28;20063;-67
2022/02/14 12:44:55;;;;;;;6.47;3.00;;;16.40;82.20;;;;;;5070795;28;20094;-67
2022/02/14 12:47:25;;;;;;;12.43;3.50;;;16.00;82.30;;;;;;5071460;28;20044;-67
2022/02/14 12:50:17;;;;;;;7.07;3.28;;;15.70;83.60;;;;;;5072157;28;20080;-67
2022/02/14 12:52:47;;;;;;;7.32;3.70;;;15.30;84.00;;;;;;5063383;28;20052;-66
2022/02/14 12:55:26;;;;;;;7.38;4.20;;;15.10;84.80;;;;;;5069348;28;20052;-68
2022/02/14 12:57:57;;;;;;;9.70;3.42;;;14.90;85.50;;;;;;5068225;28;20041;-68
2022/02/14 13:00:38;;;;;;;8.70;3.72;;;14.80;85.10;;;;;;5066248;28;20037;-67
2022/02/14 13:03:13;;;;;;;7.85;3.33;;;14.70;85.40;;;;;;5066878;28;20525;-67
2022/02/14 13:05:48;;;;;;;8.77;2.90;;;14.40;85.30;;;;;;5052649;28;20065;-67
2022/02/14 13:08:18;;;;;;;5.18;2.92;;;14.10;86.10;;;;;;5069379;28;20052;-66